Time;durP1;ratioP1;P1;durP2;ratioP2;P2;SDS_P1;SDS_P2;PMS_P1;PMS_P2;Temp;Humidity;BMP_temperature;BMP_pressure;BME280_temperature;BME280_humidity;BME280_pressure;Samples;Min_cycle;Max_cycle;Signal;HPM_P1;HPM_P2
2022/01/16 00:00:56;;;;;;;;;82.25;63.25;;;;;2.17;93.28;102204.34;5017326;28;45385;-68
2022/01/16 00:06:05;;;;;;;;;89.67;63.00;;;;;2.20;92.84;102225.22;5049749;28;45372;-68
2022/01/16 00:08:30;;;;;;;;;90.00;66.00;;;;;2.21;92.91;102232.22;5047391;28;45381;-67
2022/01/16 00:10:56;;;;;;;;;88.00;66.00;;;;;2.24;92.63;102231.44;5065300;27;45981;-67
2022/01/16 00:13:23;;;;;;;;;82.00;63.33;;;;;2.22;92.33;102221.00;5048711;27;47385;-67
2022/01/16 00:15:49;;;;;;;;;88.33;63.33;;;;;2.21;92.57;102211.41;5040967;27;45575;-67
2022/01/16 00:18:21;;;;;;;;;89.33;65.33;;;;;2.19;92.98;102199.19;5074172;27;45197;-67
2022/01/16 00:20:47;;;;;;;;;82.67;64.33;;;;;2.19;93.20;102213.09;5044464;28;45432;-68
2022/01/16 00:23:13;;;;;;;;;88.25;66.00;;;;;2.01;93.59;102189.91;5044340;28;45473;-68
2022/01/16 00:25:38;;;;;;;;;73.00;60.33;;;;;2.13;93.47;102207.66;5037013;28;45321;-68
2022/01/16 00:28:04;;;;;;;;;92.00;66.25;;;;;2.17;93.35;102208.66;5035651;28;45415;-68
2022/01/16 00:30:29;;;;;;;;;79.67;61.67;;;;;2.13;92.95;102201.59;5035920;28;45260;-67
2022/01/16 00:33:00;;;;;;;;;87.50;67.25;;;;;2.06;93.00;102190.97;5050962;27;46610;-68
2022/01/16 00:35:26;;;;;;;;;81.67;63.00;;;;;1.96;93.30;102178.50;5079746;27;45252;-68
2022/01/16 00:37:54;;;;;;;;;90.00;65.33;;;;;2.13;93.80;102217.19;5046162;28;45362;-68
2022/01/16 00:40:19;;;;;;;;;81.00;61.67;;;;;1.68;93.40;102154.09;5019757;27;45582;-67
2022/01/16 00:42:44;;;;;;;;;90.00;65.67;;;;;2.12;94.39;102225.78;5044230;28;45207;-68
2022/01/16 00:45:10;;;;;;;;;82.00;62.00;;;;;2.13;94.74;102220.66;5035535;28;45176;-67
2022/01/16 00:47:36;;;;;;;;;83.00;62.00;;;;;2.08;94.93;102204.03;5035258;28;45355;-68
2022/01/16 00:50:03;;;;;;;;;83.33;60.33;;;;;2.17;95.70;102201.75;5041694;27;45358;-69
2022/01/16 00:52:28;;;;;;;;;75.33;58.33;;;;;2.22;95.29;102217.50;5096157;27;46201;-68
2022/01/16 00:54:55;;;;;;;;;84.67;62.00;;;;;2.22;95.80;102202.81;5049666;28;45390;-68
2022/01/16 00:57:20;;;;;;;;;83.33;60.67;;;;;2.18;96.25;102166.25;5025117;28;45360;-67
2022/01/16 00:59:45;;;;;;;;;84.33;59.67;;;;;2.27;96.87;102200.38;5016464;28;45498;-67
2022/01/16 01:02:11;;;;;;;;;74.33;57.67;;;;;2.32;96.30;102201.38;5029281;28;46074;-68
2022/01/16 01:04:36;;;;;;;;;75.67;54.33;;;;;2.24;96.42;102190.72;5035144;28;45877;-68
2022/01/16 01:07:02;;;;;;;;;74.33;55.67;;;;;2.42;95.51;102195.66;5035146;28;45753;-68
2022/01/16 01:09:27;;;;;;;;;75.00;54.67;;;;;2.44;96.34;102203.56;5034809;28;45395;-67
2022/01/16 01:11:52;;;;;;;;;77.67;55.00;;;;;2.51;96.27;102228.03;5034557;28;45353;-67
2022/01/16 01:16:55;;;;;;;;;80.33;57.00;;;;;2.30;95.95;102184.88;5084014;27;45436;-67
2022/01/16 01:19:31;;;;;;;;;72.00;54.00;;;;;2.58;95.82;102210.06;5038148;28;45230;-67
2022/01/16 01:21:57;;;;;;;;;63.33;50.67;;;;;2.54;96.09;102209.94;5034460;28;47682;-67
2022/01/16 01:24:25;;;;;;;;;76.00;53.00;;;;;2.55;95.71;102183.97;5023014;28;45434;-67
2022/01/16 01:27:02;;;;;;;;;72.33;55.00;;;;;2.54;95.98;102202.13;5021290;28;45469;-67
2022/01/16 01:29:29;;;;;;;;;72.00;54.33;;;;;2.61;95.57;102206.69;5034849;28;45431;-67
2022/01/16 01:31:55;;;;;;;;;64.33;48.33;;;;;2.60;96.16;102176.34;5034576;28;45424;-67
2022/01/16 01:34:21;;;;;;;;;67.33;52.33;;;;;2.49;96.16;102113.59;5017537;28;45213;-67
2022/01/16 01:36:48;;;;;;;;;70.67;54.67;;;;;2.59;96.09;102128.66;5015738;28;45469;-67
2022/01/16 01:39:16;;;;;;;;;72.00;53.33;;;;;2.59;96.12;102126.06;5024504;28;45202;-67
2022/01/16 01:41:41;;;;;;;;;72.67;56.00;;;;;2.50;96.29;102112.75;5014552;28;45412;-67
2022/01/16 01:52:19;;;;;;;;;71.00;55.00;;;;;2.71;96.42;102185.38;5017182;28;45772;-67
2022/01/16 01:54:45;;;;;;;;;74.00;51.33;;;;;2.65;96.69;102186.91;5023564;27;45693;-67
2022/01/16 01:57:11;;;;;;;;;74.00;52.33;;;;;2.77;96.17;102209.00;5019010;28;45312;-67
2022/01/16 01:59:39;;;;;;;;;70.00;53.00;;;;;2.82;96.60;102210.84;5015539;28;45536;-67
2022/01/16 02:02:06;;;;;;;;;69.67;52.67;;;;;2.86;95.95;102221.44;5030211;28;46510;-67
2022/01/16 02:04:31;;;;;;;;;71.67;52.00;;;;;2.93;95.48;102235.50;5033622;28;45307;-67
2022/01/16 02:06:58;;;;;;;;;67.00;50.67;;;;;2.95;95.15;102226.03;5022824;28;45504;-67
2022/01/16 02:09:24;;;;;;;;;66.67;48.00;;;;;2.89;95.39;102223.22;5014664;28;45651;-67
2022/01/16 02:11:51;;;;;;;;;74.67;52.00;;;;;2.85;95.31;102232.66;5014188;28;45346;-67
2022/01/16 02:14:46;;;;;;;;;68.67;52.00;;;;;2.83;95.45;102228.22;5014214;28;45365;-67
2022/01/16 02:28:42;;;;;;;;;68.33;54.33;;;;;2.73;96.14;102240.94;5025937;28;45485;-67
2022/01/16 02:31:21;;;;;;;;;68.33;52.33;;;;;2.69;96.42;102251.19;5014063;28;45300;-67
2022/01/16 02:36:30;;;;;;;;;70.67;53.67;;;;;2.63;96.15;102241.47;5027531;28;45322;-68
2022/01/16 02:39:10;;;;;;;;;78.33;53.67;;;;;2.59;96.15;102240.44;5024148;28;45821;-68
2022/01/16 02:41:36;;;;;;;;;60.33;48.67;;;;;2.59;96.47;102240.44;5033923;28;45398;-68
2022/01/16 02:44:11;;;;;;;;;70.33;50.00;;;;;2.64;96.45;102248.41;5033485;28;45347;-68
2022/01/16 02:46:37;;;;;;;;;61.67;47.33;;;;;2.60;96.38;102231.84;5018434;28;45412;-68
2022/01/16 02:49:03;;;;;;;;;71.00;51.33;;;;;2.67;96.79;102245.91;5013416;28;45425;-68
2022/01/16 02:51:28;;;;;;;;;66.00;51.00;;;;;2.68;96.74;102244.22;5013747;28;45296;-68
2022/01/16 02:53:55;;;;;;;;;70.33;48.00;;;;;2.64;96.54;102224.13;5026042;28;46116;-68
2022/01/16 02:56:21;;;;;;;;;61.33;47.67;;;;;2.68;96.74;102224.28;5014047;28;45478;-68
2022/01/16 02:58:49;;;;;;;;;62.67;45.00;;;;;2.69;97.26;102228.66;5013645;28;45286;-68
2022/01/16 03:01:15;;;;;;;;;70.00;53.00;;;;;2.66;97.18;102220.75;5015082;27;45383;-68
2022/01/16 03:03:41;;;;;;;;;68.00;48.67;;;;;2.58;96.66;102214.41;5024890;28;46612;-68
2022/01/16 03:06:06;;;;;;;;;66.33;51.00;;;;;2.63;96.32;102219.75;5018306;28;45325;-68
2022/01/16 03:08:32;;;;;;;;;65.33;48.33;;;;;2.58;96.76;102191.88;5082206;27;45423;-68
2022/01/16 03:13:24;;;;;;;;;69.33;50.00;;;;;2.68;96.73;102198.28;5021094;28;45978;-67
2022/01/16 03:15:51;;;;;;;;;63.00;44.67;;;;;2.66;97.21;102202.56;5013331;28;45223;-68
2022/01/16 03:23:26;;;;;;;;;75.67;52.00;;;;;2.58;97.35;102181.47;5025698;28;45292;-68
2022/01/16 03:25:53;;;;;;;;;65.33;49.00;;;;;2.63;97.25;102185.94;5036143;28;45289;-68
2022/01/16 03:28:19;;;;;;;;;63.00;51.67;;;;;2.64;97.33;102188.59;5035211;28;45330;-68
2022/01/16 03:30:46;;;;;;;;;68.00;48.67;;;;;2.64;97.55;102185.13;5036416;28;45395;-68
2022/01/16 03:33:11;;;;;;;;;63.33;46.67;;;;;2.50;97.04;102164.75;5035364;28;45525;-68
2022/01/16 03:35:37;;;;;;;;;64.00;47.00;;;;;2.32;96.86;102130.34;5030402;28;45450;-67
2022/01/16 03:38:04;;;;;;;;;64.67;48.00;;;;;2.70;97.28;102185.31;5026445;28;45374;-67
2022/01/16 03:40:29;;;;;;;;;70.67;48.67;;;;;2.68;97.56;102176.59;5034034;28;45506;-68
2022/01/16 03:43:03;;;;;;;;;64.00;46.00;;;;;2.74;97.62;102185.47;5029353;28;45388;-67
2022/01/16 03:45:28;;;;;;;;;60.00;48.33;;;;;2.78;97.80;102199.47;5035789;28;45475;-68
2022/01/16 03:47:55;;;;;;;;;66.67;48.33;;;;;2.84;97.81;102204.88;5035143;27;45750;-67
2022/01/16 03:50:20;;;;;;;;;68.67;49.33;;;;;2.88;97.64;102198.94;5036292;28;45505;-68
2022/01/16 03:52:46;;;;;;;;;60.67;41.00;;;;;2.65;97.07;102153.09;5034481;28;45302;-68
2022/01/16 03:55:11;;;;;;;;;69.33;48.67;;;;;2.87;97.28;102184.16;5035629;28;45613;-68
2022/01/16 03:57:37;;;;;;;;;67.67;47.00;;;;;2.89;97.50;102182.50;5035440;28;45276;-68
2022/01/16 04:00:05;;;;;;;;;64.00;46.67;;;;;3.02;96.57;102194.19;5032514;28;45391;-68
2022/01/16 04:02:30;;;;;;;;;60.67;47.00;;;;;3.07;97.60;102190.00;5033472;28;46938;-67
2022/01/16 04:04:55;;;;;;;;;67.67;49.67;;;;;3.07;96.77;102187.38;5032845;28;45333;-67
2022/01/16 04:07:27;;;;;;;;;59.67;43.33;;;;;3.10;96.58;102195.28;5016047;28;45401;-67
2022/01/16 04:09:52;;;;;;;;;76.67;52.67;;;;;3.10;97.70;102204.81;5015853;28;45507;-68
2022/01/16 04:12:22;;;;;;;;;65.33;46.00;;;;;3.11;96.92;102202.28;5015941;28;45812;-68
2022/01/16 04:17:21;;;;;;;;;66.67;49.33;;;;;3.22;96.73;102217.34;5034191;28;45621;-67
2022/01/16 04:19:48;;;;;;;;;62.33;44.67;;;;;3.25;97.10;102214.81;5035213;28;45276;-68
2022/01/16 04:22:13;;;;;;;;;65.33;48.33;;;;;3.17;97.27;102206.78;5035427;28;46181;-68
2022/01/16 04:24:40;;;;;;;;;62.00;43.33;;;;;3.29;97.47;102221.91;5029119;28;45885;-68
2022/01/16 04:27:06;;;;;;;;;63.00;45.67;;;;;3.26;97.75;102212.28;5035194;28;45519;-68
2022/01/16 04:29:32;;;;;;;;;67.00;46.00;;;;;3.34;97.80;102214.22;5034984;28;45378;-68
2022/01/16 04:31:58;;;;;;;;;57.67;41.67;;;;;3.36;97.60;102218.66;5033471;28;46173;-68
2022/01/16 04:34:23;;;;;;;;;46.67;38.00;;;;;3.41;97.02;102214.47;5016197;28;45745;-68
2022/01/16 04:36:49;;;;;;;;;62.67;44.33;;;;;3.38;97.51;102227.38;5015712;28;45214;-68
2022/01/16 04:39:19;;;;;;;;;60.00;45.00;;;;;3.44;96.81;102224.09;5016028;28;45307;-68
2022/01/16 04:44:30;;;;;;;;;58.33;44.33;;;;;3.50;97.58;102234.72;5030075;28;45279;-68
2022/01/16 04:46:56;;;;;;;;;64.00;46.67;;;;;3.47;96.73;102208.56;5034933;28;45384;-68
2022/01/16 04:49:22;;;;;;;;;66.33;43.67;;;;;3.53;97.09;102232.19;5035078;28;45224;-67
2022/01/16 04:51:47;;;;;;;;;51.00;40.67;;;;;3.53;96.91;102229.59;5035300;28;45474;-68
2022/01/16 04:54:13;;;;;;;;;62.33;39.33;;;;;3.45;97.77;102221.53;5018647;28;45438;-68
2022/01/16 04:56:38;;;;;;;;;58.00;38.67;;;;;3.45;97.36;102218.03;5015269;28;45699;-68
2022/01/16 04:59:04;;;;;;;;;66.33;50.00;;;;;3.52;97.56;102222.59;5029375;28;45509;-68
2022/01/16 05:01:29;;;;;;;;;60.33;44.00;;;;;3.55;97.67;102227.03;5020198;28;45275;-67
2022/01/16 05:03:55;;;;;;;;;64.33;45.00;;;;;3.54;97.05;102220.91;5034267;28;45512;-68
2022/01/16 05:06:21;;;;;;;;;53.00;44.00;;;;;3.57;97.49;102227.94;5035131;28;45336;-68
2022/01/16 05:08:47;;;;;;;;;56.67;41.67;;;;;3.52;97.50;102219.13;5022033;28;45292;-68
2022/01/16 05:11:14;;;;;;;;;56.67;41.00;;;;;3.49;97.34;102217.31;5022258;28;46287;-68
2022/01/16 05:18:52;;;;;;;;;53.67;41.00;;;;;3.62;98.11;102235.06;5033316;28;45586;-68
2022/01/16 05:21:18;;;;;;;;;57.00;40.67;;;;;3.66;97.30;102228.25;5034445;28;46289;-68
2022/01/16 05:23:43;;;;;;;;;59.33;45.67;;;;;3.59;96.91;102219.34;5017864;28;45338;-68
2022/01/16 05:26:11;;;;;;;;;56.33;41.67;;;;;3.67;97.36;102240.41;5017210;28;45463;-68
2022/01/16 05:28:36;;;;;;;;;49.00;36.33;;;;;3.65;96.84;102224.72;5023907;28;45473;-68
2022/01/16 05:31:02;;;;;;;;;60.67;41.67;;;;;3.68;96.85;102212.66;5022411;28;46915;-68
2022/01/16 05:33:28;;;;;;;;;55.33;41.67;;;;;3.71;97.49;102208.41;5033833;28;45365;-68
2022/01/16 05:35:53;;;;;;;;;54.67;41.33;;;;;3.64;97.72;102201.25;5027122;28;45451;-68
2022/01/16 05:38:19;;;;;;;;;69.00;50.67;;;;;3.59;97.60;102184.63;5026306;28;46832;-68
2022/01/16 05:40:44;;;;;;;;;62.67;43.67;;;;;3.58;98.29;102188.94;5018163;28;45501;-68
2022/01/16 05:43:10;;;;;;;;;58.33;40.00;;;;;3.58;98.32;102194.13;5035166;27;45495;-68
2022/01/16 05:45:36;;;;;;;;;56.67;37.67;;;;;3.63;98.25;102200.38;5034538;28;45274;-68
2022/01/16 05:48:02;;;;;;;;;59.00;44.00;;;;;3.61;98.55;102212.44;5027306;28;45537;-68
2022/01/16 05:50:28;;;;;;;;;47.67;33.67;;;;;3.60;99.40;102205.50;5017415;28;46134;-69
2022/01/16 05:52:53;;;;;;;;;60.33;41.67;;;;;3.38;99.89;102161.41;5023886;28;45465;-68
2022/01/16 05:55:19;;;;;;;;;61.33;43.00;;;;;3.65;99.73;102216.03;5014766;27;45243;-69
2022/01/16 05:57:45;;;;;;;;;64.67;44.67;;;;;3.55;100.00;102194.03;5014467;28;45427;-68
2022/01/16 06:00:13;;;;;;;;;62.00;46.00;;;;;3.63;99.74;102204.69;5014642;28;45509;-68
2022/01/16 06:02:38;;;;;;;;;53.00;38.33;;;;;3.75;99.55;102202.44;5020057;28;45380;-68
2022/01/16 06:05:05;;;;;;;;;49.00;39.33;;;;;3.79;99.41;102206.00;5034526;28;45389;-69
2022/01/16 06:07:30;;;;;;;;;60.33;44.00;;;;;3.72;99.07;102194.56;5030837;28;45319;-68
2022/01/16 06:09:56;;;;;;;;;58.00;42.00;;;;;3.87;99.56;102220.16;5021352;28;45501;-68
2022/01/16 06:12:21;;;;;;;;;67.33;51.33;;;;;3.91;99.16;102221.13;5033217;28;45254;-68
2022/01/16 06:14:47;;;;;;;;;59.00;46.00;;;;;3.92;98.86;102213.38;5017540;28;45572;-68
2022/01/16 06:17:13;;;;;;;;;50.33;41.33;;;;;3.93;98.93;102222.94;5015622;28;45751;-69
2022/01/16 06:19:38;;;;;;;;;61.00;44.00;;;;;3.86;98.69;102205.34;5014353;28;45700;-69
2022/01/16 06:22:04;;;;;;;;;62.00;43.33;;;;;3.97;98.54;102213.50;5013939;28;45494;-69
2022/01/16 06:24:29;;;;;;;;;62.00;47.00;;;;;3.94;98.65;102227.31;5014334;27;45302;-69
2022/01/16 06:26:55;;;;;;;;;61.33;41.67;;;;;4.03;98.70;102249.28;5014184;28;45601;-69
2022/01/16 06:29:21;;;;;;;;;49.00;39.00;;;;;4.00;98.26;102237.91;5028029;28;47138;-68
2022/01/16 06:31:46;;;;;;;;;58.00;43.33;;;;;3.99;98.45;102230.03;5016339;28;45424;-69
2022/01/16 06:34:12;;;;;;;;;46.33;38.33;;;;;4.03;98.46;102238.84;5017940;28;45334;-68
2022/01/16 06:36:38;;;;;;;;;54.67;42.67;;;;;3.87;98.53;102203.66;5030231;28;45512;-68
2022/01/16 06:39:05;;;;;;;;;47.33;40.00;;;;;4.12;98.58;102241.69;5033574;28;46697;-68
2022/01/16 06:41:32;;;;;;;;;51.33;40.67;;;;;4.07;98.39;102232.88;5032995;28;45258;-69
2022/01/16 06:43:57;;;;;;;;;56.33;41.00;;;;;4.15;98.07;102245.28;5031783;28;45271;-69
2022/01/16 06:46:23;;;;;;;;;53.00;41.00;;;;;4.17;98.32;102243.59;5033221;28;45422;-68
2022/01/16 06:48:50;;;;;;;;;62.33;43.33;;;;;4.18;98.41;102250.59;5028350;28;45422;-69
2022/01/16 06:51:19;;;;;;;;;54.00;36.67;;;;;4.08;98.41;102230.31;5014079;28;45355;-69
2022/01/16 06:53:46;;;;;;;;;53.67;39.00;;;;;4.13;98.02;102238.25;5017789;28;45441;-68
2022/01/16 06:56:11;;;;;;;;;54.67;36.00;;;;;4.21;98.69;102246.28;5015371;28;45448;-69
2022/01/16 06:58:37;;;;;;;;;67.33;48.00;;;;;4.26;98.61;102253.41;5023190;28;46181;-68
2022/01/16 07:01:02;;;;;;;;;58.00;42.00;;;;;4.26;98.61;102258.59;5027332;28;45513;-68
2022/01/16 07:03:27;;;;;;;;;60.67;38.67;;;;;4.30;98.11;102265.69;5016789;28;45222;-68
2022/01/16 07:05:54;;;;;;;;;58.00;42.67;;;;;4.29;98.04;102268.25;5017012;27;45469;-68
2022/01/16 07:08:23;;;;;;;;;58.67;46.33;;;;;4.31;98.14;102279.59;5017525;28;45457;-68
2022/01/16 07:10:50;;;;;;;;;60.67;38.00;;;;;4.31;97.77;102271.75;5016266;28;45414;-68
2022/01/16 07:13:16;;;;;;;;;51.33;40.33;;;;;4.36;97.87;102288.44;5017211;28;45373;-68
2022/01/16 07:15:41;;;;;;;;;59.33;46.00;;;;;4.29;97.69;102266.50;5016957;28;45233;-69
2022/01/16 07:18:06;;;;;;;;;53.00;36.67;;;;;4.39;97.81;102293.72;5020158;28;45952;-69
2022/01/16 07:20:32;;;;;;;;;63.00;47.67;;;;;4.36;97.72;102275.41;5035057;28;45295;-69
2022/01/16 07:22:57;;;;;;;;;53.67;37.00;;;;;4.33;97.42;102286.63;5023698;28;45402;-69
2022/01/16 07:25:22;;;;;;;;;61.33;44.67;;;;;4.30;98.47;102290.88;5021480;28;45501;-69
2022/01/16 07:27:48;;;;;;;;;45.33;38.33;;;;;4.40;98.19;102311.16;5035291;28;46541;-69
2022/01/16 07:30:13;;;;;;;;;54.00;42.67;;;;;4.38;98.47;102297.16;5027302;28;45350;-68
2022/01/16 07:32:39;;;;;;;;;61.33;44.67;;;;;4.43;98.29;102310.34;5019021;28;45394;-69
2022/01/16 07:35:05;;;;;;;;;61.67;44.67;;;;;4.48;97.99;102303.53;5036573;27;45275;-69
2022/01/16 07:37:30;;;;;;;;;55.67;43.00;;;;;4.53;97.72;102299.31;5035280;28;46118;-69
2022/01/16 07:39:56;;;;;;;;;55.00;39.33;;;;;4.54;97.81;102314.13;5027917;28;45491;-69
2022/01/16 07:42:22;;;;;;;;;61.33;43.67;;;;;4.56;97.80;102322.91;5016062;28;45602;-69
2022/01/16 07:44:47;;;;;;;;;54.67;38.67;;;;;4.47;97.90;102300.06;5016347;28;45346;-69
2022/01/16 07:47:12;;;;;;;;;57.67;40.33;;;;;4.61;97.47;102325.63;5016237;28;46362;-68
2022/01/16 07:49:38;;;;;;;;;64.33;47.67;;;;;4.58;97.30;102330.78;5015874;27;45517;-69
2022/01/16 07:52:03;;;;;;;;;53.00;39.33;;;;;4.56;97.01;102306.34;5030649;28;45389;-69
2022/01/16 07:54:29;;;;;;;;;59.67;43.67;;;;;4.61;96.59;102316.06;5035660;27;45386;-68
2022/01/16 07:56:54;;;;;;;;;57.33;41.00;;;;;4.62;97.18;102327.38;5035594;28;46407;-69
2022/01/16 07:59:19;;;;;;;;;54.67;41.67;;;;;4.50;96.59;102302.75;5035560;28;45414;-69
2022/01/16 08:01:45;;;;;;;;;54.33;40.67;;;;;4.58;96.81;102315.13;5016971;28;45294;-68
2022/01/16 08:04:10;;;;;;;;;63.67;48.33;;;;;4.53;97.02;102301.91;5030114;28;45378;-69
2022/01/16 08:06:36;;;;;;;;;57.33;43.33;;;;;4.58;96.56;102316.00;5035295;28;45876;-69
2022/01/16 08:09:02;;;;;;;;;64.00;51.00;;;;;4.65;96.63;102317.06;5020973;28;45344;-69
2022/01/16 08:11:27;;;;;;;;;56.33;42.00;;;;;4.39;96.62;102269.41;5016081;28;45323;-69
2022/01/16 08:13:52;;;;;;;;;62.67;48.00;;;;;4.65;96.17;102314.44;5016487;28;45341;-69
2022/01/16 08:16:18;;;;;;;;;61.33;44.00;;;;;4.60;96.59;102310.81;5029976;28;45489;-69
2022/01/16 08:18:43;;;;;;;;;53.33;38.33;;;;;4.63;95.93;102308.28;5021109;28;45227;-69
2022/01/16 08:21:08;;;;;;;;;55.00;39.67;;;;;4.67;95.62;102308.41;5022756;27;45544;-69
2022/01/16 08:23:34;;;;;;;;;63.00;49.33;;;;;4.35;95.86;102261.47;5035836;28;45324;-69
2022/01/16 08:26:00;;;;;;;;;67.33;48.33;;;;;4.33;95.14;102265.75;5034548;28;45544;-69
2022/01/16 08:28:26;;;;;;;;;64.00;46.00;;;;;4.52;95.57;102297.56;5034488;28;45280;-69
2022/01/16 08:30:51;;;;;;;;;59.33;45.00;;;;;4.59;95.69;102320.38;5035631;28;45365;-69
2022/01/16 08:33:17;;;;;;;;;61.67;44.67;;;;;4.63;95.17;102324.84;5027079;28;45626;-69
2022/01/16 08:35:43;;;;;;;;;64.67;46.00;;;;;4.60;95.06;102319.50;5032083;28;45509;-69
2022/01/16 08:38:08;;;;;;;;;62.67;43.33;;;;;4.55;94.67;102317.66;5035056;28;45438;-69
2022/01/16 08:40:34;;;;;;;;;64.33;49.67;;;;;4.44;94.21;102307.78;5035442;28;45404;-69
2022/01/16 08:43:07;;;;;;;;;66.00;45.00;;;;;4.48;94.40;102329.63;5033629;28;45416;-69
2022/01/16 08:45:32;;;;;;;;;66.67;49.67;;;;;4.38;94.27;102314.56;5034560;28;46774;-70
2022/01/16 08:47:58;;;;;;;;;67.00;49.33;;;;;4.47;93.63;102336.56;5034851;27;45288;-69
2022/01/16 08:50:23;;;;;;;;;63.67;43.67;;;;;4.41;93.80;102320.72;5033750;28;45485;-69
2022/01/16 08:52:48;;;;;;;;;60.33;47.00;;;;;4.38;94.20;102331.06;5034819;28;45301;-69
2022/01/16 08:55:14;;;;;;;;;51.67;41.33;;;;;4.38;94.03;102332.81;5034990;28;46466;-68
2022/01/16 08:57:39;;;;;;;;;61.33;47.00;;;;;4.43;93.80;102347.75;5034666;28;45555;-69
2022/01/16 09:00:07;;;;;;;;;59.67;46.33;;;;;4.46;94.19;102355.66;5031530;28;45427;-68
2022/01/16 09:02:33;;;;;;;;;68.67;50.00;;;;;4.43;94.38;102349.44;5024544;28;45605;-69
2022/01/16 09:04:58;;;;;;;;;64.67;45.33;;;;;4.43;93.53;102352.97;5034568;28;46247;-68
2022/01/16 09:07:23;;;;;;;;;60.33;45.33;;;;;4.45;93.69;102355.63;5033787;28;45241;-68
2022/01/16 09:09:49;;;;;;;;;57.67;44.00;;;;;4.41;93.89;102343.31;5031072;28;45251;-68
2022/01/16 09:12:14;;;;;;;;;50.67;41.00;;;;;4.48;93.55;102360.91;5033187;28;45499;-69
2022/01/16 09:14:40;;;;;;;;;47.33;40.33;;;;;4.37;94.38;102350.16;5028993;28;45800;-69
2022/01/16 09:17:05;;;;;;;;;59.67;43.33;;;;;4.40;93.83;102354.59;5016332;28;45653;-69
2022/01/16 09:19:31;;;;;;;;;56.00;43.67;;;;;4.43;93.64;102367.72;5015115;28;45792;-69
2022/01/16 09:21:56;;;;;;;;;61.00;45.33;;;;;4.24;94.33;102345.44;5026576;28;45520;-68
2022/01/16 09:24:22;;;;;;;;;59.00;43.00;;;;;4.41;93.54;102378.09;5034742;28;46238;-69
2022/01/16 09:26:48;;;;;;;;;58.67;43.67;;;;;4.41;93.37;102398.97;5034674;28;45313;-69
2022/01/16 09:29:13;;;;;;;;;59.00;40.00;;;;;4.36;94.64;102382.31;5021574;28;46138;-69
2022/01/16 09:31:38;;;;;;;;;62.67;46.33;;;;;4.41;93.61;102379.84;5014959;28;45527;-69
2022/01/16 09:34:05;;;;;;;;;62.33;45.00;;;;;4.37;92.86;102365.81;5014725;28;46604;-70
2022/01/16 09:36:30;;;;;;;;;59.67;44.67;;;;;4.23;92.90;102331.53;5014721;28;45275;-69
2022/01/16 09:38:56;;;;;;;;;58.33;43.00;;;;;4.53;92.92;102380.16;5022433;27;45307;-69
2022/01/16 09:41:21;;;;;;;;;58.67;43.67;;;;;4.46;92.40;102373.91;5017230;28;45408;-69
2022/01/16 09:43:47;;;;;;;;;55.33;42.33;;;;;4.49;92.67;102384.44;5027942;28;46171;-69
2022/01/16 09:46:12;;;;;;;;;70.33;52.00;;;;;4.56;92.48;102400.25;5021719;28;45353;-69
2022/01/16 09:48:38;;;;;;;;;55.67;43.33;;;;;4.56;93.23;102401.16;5027064;28;45537;-70
2022/01/16 09:51:04;;;;;;;;;50.33;40.67;;;;;4.51;92.41;102398.38;5047100;28;45497;-69
2022/01/16 09:53:31;;;;;;;;;58.00;41.33;;;;;4.52;91.69;102396.69;5040980;28;46625;-69
2022/01/16 09:55:56;;;;;;;;;53.67;45.67;;;;;4.55;92.07;102406.34;5039195;28;45400;-70
2022/01/16 09:58:22;;;;;;;;;62.67;44.33;;;;;4.63;91.85;102412.63;5049923;27;45270;-69
2022/01/16 10:00:50;;;;;;;;;50.33;38.33;;;;;4.68;91.06;102409.31;5034298;28;45492;-70
2022/01/16 10:03:36;;;;;;;;;58.67;39.00;;;;;4.68;91.39;102401.50;5034016;28;45746;-70
2022/01/16 10:06:20;;;;;;;;;55.00;40.00;;;;;4.77;91.58;102426.97;5043556;28;45223;-70
2022/01/16 10:08:48;;;;;;;;;61.00;44.67;;;;;4.80;91.17;102415.72;5033495;28;45399;-70
2022/01/16 10:11:22;;;;;;;;;56.00;42.67;;;;;4.86;91.45;102414.16;5033727;27;45462;-71
2022/01/16 10:16:38;;;;;;;;;50.67;36.00;;;;;4.91;90.12;102410.78;5030778;28;45359;-69
2022/01/16 10:19:18;;;;;;;;;49.00;37.67;;;;;4.75;90.96;102401.66;5033984;28;45451;-69
2022/01/16 10:21:43;;;;;;;;;47.67;40.00;;;;;4.82;91.25;102414.94;5034233;28;45204;-69
2022/01/16 10:24:41;;;;;;;;;58.67;40.67;;;;;4.94;90.74;102429.16;5034218;28;45974;-69
2022/01/16 10:27:11;;;;;;;;;63.33;40.33;;;;;4.97;91.16;102419.69;5074234;28;45639;-69
2022/01/16 10:29:43;;;;;;;;;55.67;42.67;;;;;4.93;91.22;102410.00;5074437;27;45515;-68
2022/01/16 10:32:14;;;;;;;;;55.00;41.33;;;;;5.05;90.84;102425.13;5088483;27;45425;-68
2022/01/16 10:34:41;;;;;;;;;56.00;39.00;;;;;5.03;90.96;102438.13;5092610;27;47575;-68
2022/01/16 10:37:26;;;;;;;;;57.67;41.00;;;;;5.05;91.11;102438.16;5093069;27;45477;-68
2022/01/16 10:40:19;;;;;;;;;53.67;37.67;;;;;5.08;90.91;102435.63;5086152;27;45920;-68
2022/01/16 10:42:50;;;;;;;;;52.67;39.67;;;;;5.05;90.61;102433.84;5082829;27;45545;-68
2022/01/16 10:45:17;;;;;;;;;56.00;39.33;;;;;5.06;90.84;102442.56;5092554;27;45452;-67
2022/01/16 10:47:51;;;;;;;;;48.67;38.67;;;;;5.04;90.10;102433.81;5089588;27;45423;-67
2022/01/16 10:50:16;;;;;;;;;49.33;39.33;;;;;5.05;91.02;102430.34;5073348;28;45389;-67
2022/01/16 10:53:01;;;;;;;;;54.33;40.00;;;;;5.11;90.97;102427.91;5073298;28;45284;-68
2022/01/16 10:55:41;;;;;;;;;75.00;58.00;;;;;5.23;91.01;102428.22;5072836;28;45590;-68
2022/01/16 10:58:26;;;;;;;;;58.00;42.00;;;;;5.33;90.27;102424.13;5072851;28;45498;-68
2022/01/16 11:01:00;;;;;;;;;54.00;38.33;;;;;5.39;90.29;102423.41;5072978;28;45600;-67
2022/01/16 11:03:27;;;;;;;;;49.67;37.33;;;;;5.34;89.97;102414.56;5024742;28;45342;-68
2022/01/16 11:05:53;;;;;;;;;56.33;38.00;;;;;5.44;89.63;102426.13;5011564;28;46558;-68
2022/01/16 11:08:22;;;;;;;;;54.00;42.67;;;;;5.35;89.90;102411.13;5011780;28;45393;-68
2022/01/16 11:10:54;;;;;;;;;48.00;38.00;;;;;5.43;89.45;102424.34;5011818;28;45299;-69
2022/01/16 11:13:21;;;;;;;;;50.33;38.33;;;;;5.46;89.57;102432.28;5008945;28;45393;-68
2022/01/16 11:15:51;;;;;;;;;50.00;38.00;;;;;5.45;89.52;102440.97;5011128;28;46291;-68
2022/01/16 11:18:19;;;;;;;;;62.00;42.33;;;;;5.39;89.89;102431.25;5011632;28;45381;-69
2022/01/16 11:21:03;;;;;;;;;45.33;38.00;;;;;5.45;89.50;102435.75;5011631;28;45414;-69
2022/01/16 11:23:33;;;;;;;;;42.00;37.33;;;;;5.43;89.83;102432.19;5011780;28;45629;-69
2022/01/16 11:26:04;;;;;;;;;55.00;43.00;;;;;5.53;89.91;102434.19;5011259;28;45532;-69
2022/01/16 11:28:30;;;;;;;;;49.00;40.33;;;;;5.56;89.75;102435.19;5011596;28;45477;-69
2022/01/16 11:30:58;;;;;;;;;52.33;38.33;;;;;5.57;90.36;102425.59;5011294;28;45553;-69
2022/01/16 11:33:27;;;;;;;;;49.00;38.33;;;;;5.64;90.33;102434.47;5030094;27;45479;-69
2022/01/16 11:35:58;;;;;;;;;56.00;39.00;;;;;5.66;90.00;102432.78;5026532;28;47275;-69
2022/01/16 11:38:29;;;;;;;;;52.67;42.33;;;;;5.56;89.86;102416.88;5013324;28;45510;-69
2022/01/16 11:40:54;;;;;;;;;49.67;35.33;;;;;5.67;90.29;102431.94;5014726;28;45441;-69
2022/01/16 11:43:40;;;;;;;;;48.33;41.33;;;;;5.68;90.33;102431.97;5014843;28;45445;-69
2022/01/16 11:46:14;;;;;;;;;51.67;39.67;;;;;5.68;90.66;102431.97;5013952;28;45473;-68
2022/01/16 11:48:40;;;;;;;;;58.67;40.33;;;;;5.69;90.50;102440.69;5022511;28;45463;-68
2022/01/16 11:54:05;;;;;;;;;52.33;38.33;;;;;5.88;90.52;102428.94;5033683;28;45485;-68
2022/01/16 11:56:40;;;;;;;;;49.33;32.67;;;;;5.87;90.77;102432.44;5033559;28;45389;-69
2022/01/16 11:59:24;;;;;;;;;46.33;39.33;;;;;5.84;90.75;102424.50;5033224;28;45449;-69
2022/01/16 12:01:52;;;;;;;;;51.33;42.00;;;;;5.92;91.39;102429.09;5033986;28;45773;-68
2022/01/16 12:04:30;;;;;;;;;50.67;38.00;;;;;5.99;91.18;102434.47;5022311;27;45468;-68
2022/01/16 12:07:10;;;;;;;;;48.33;39.67;;;;;6.07;91.81;102425.97;5014551;27;46272;-68
2022/01/16 12:12:13;;;;;;;;;54.00;42.33;;;;;6.26;92.19;102435.13;5000420;27;45552;-69